createdAt,value
2018-03-29T00:02:01.277Z,88.62
2018-03-29T00:04:28.834Z,89.14
2018-03-29T00:06:56.611Z,89.86
2018-03-29T00:09:24.165Z,89.93
2018-03-29T00:11:51.792Z,90.04
2018-03-29T00:14:19.345Z,89.86
2018-03-29T00:16:47.052Z,89.79
2018-03-29T00:19:14.613Z,89.75
2018-03-29T00:21:42.170Z,90.03
2018-03-29T00:24:09.902Z,90.32
2018-03-29T00:26:37.618Z,90.37
2018-03-29T00:29:05.472Z,90.02
2018-03-29T00:31:33.030Z,89.99
2018-03-29T00:34:00.595Z,89.86
2018-03-29T00:36:28.222Z,90.20
2018-03-29T00:38:55.758Z,90.52
2018-03-29T00:41:23.561Z,90.61
2018-03-29T00:43:51.126Z,90.58
2018-03-29T00:46:18.999Z,90.62
2018-03-29T00:48:46.818Z,90.61
2018-03-29T00:51:14.604Z,90.75
2018-03-29T00:53:45.122Z,90.83
2018-03-29T00:56:12.882Z,90.93
2018-03-29T00:58:40.449Z,90.89
2018-03-29T01:01:08.108Z,90.86
2018-03-29T01:03:35.754Z,90.80
2018-03-29T01:06:03.329Z,90.94
2018-03-29T01:08:33.981Z,91.03
2018-03-29T01:11:01.590Z,91.10
2018-03-29T01:13:29.158Z,91.22
2018-03-29T01:15:56.935Z,91.27
2018-03-29T01:18:24.494Z,90.94
2018-03-29T01:20:52.406Z,90.71
2018-03-29T01:23:19.971Z,90.47
2018-03-29T01:25:47.541Z,90.20
2018-03-29T01:28:15.146Z,89.95
2018-03-29T01:30:42.913Z,89.49
2018-03-29T01:33:10.629Z,89.60
2018-03-29T01:35:38.193Z,90.19
2018-03-29T01:38:05.822Z,90.55
2018-03-29T01:40:33.386Z,90.86
2018-03-29T01:43:00.959Z,90.70
2018-03-29T01:45:28.752Z,90.42
2018-03-29T01:47:56.315Z,90.51
2018-03-29T01:50:23.893Z,90.82
2018-03-29T01:52:51.460Z,90.84
2018-03-29T01:55:19.091Z,90.89
2018-03-29T01:57:46.710Z,90.87
2018-03-29T02:00:14.278Z,90.72
2018-03-29T02:02:42.076Z,90.39
2018-03-29T02:05:09.889Z,90.00
2018-03-29T02:07:37.541Z,89.65
2018-03-29T02:10:05.337Z,89.56
2018-03-29T02:12:32.913Z,89.78
2018-03-29T02:15:00.486Z,89.83
2018-03-29T02:17:28.288Z,89.88
2018-03-29T02:19:56.102Z,89.70
2018-03-29T02:22:23.653Z,89.63
2018-03-29T02:24:51.222Z,89.60
2018-03-29T02:27:18.794Z,89.71
2018-03-29T02:29:46.576Z,89.99
2018-03-29T02:32:14.228Z,90.00
2018-03-29T02:34:41.792Z,90.30
2018-03-29T02:37:09.428Z,90.41
2018-03-29T02:39:37.245Z,90.24
2018-03-29T02:42:04.935Z,90.11
2018-03-29T02:44:32.648Z,90.09
2018-03-29T02:47:00.211Z,90.21
2018-03-29T02:49:28.018Z,90.28
2018-03-29T02:51:55.616Z,90.28
2018-03-29T02:54:23.234Z,90.32
2018-03-29T02:56:50.811Z,90.30
2018-03-29T02:59:18.375Z,90.35
2018-03-29T03:01:46.007Z,90.51
2018-03-29T03:04:13.608Z,90.82
2018-03-29T03:06:41.167Z,91.22
2018-03-29T03:09:08.748Z,91.81
2018-03-29T03:11:36.569Z,92.30
2018-03-29T03:14:04.582Z,92.58
2018-03-29T03:16:32.298Z,92.43
2018-03-29T03:18:59.873Z,92.26
2018-03-29T03:21:27.438Z,91.91
2018-03-29T03:23:55.002Z,91.68
2018-03-29T03:26:22.677Z,91.27
2018-03-29T03:28:50.697Z,90.73
2018-03-29T03:31:18.327Z,90.50
2018-03-29T03:33:46.141Z,90.63
2018-03-29T03:36:13.860Z,90.86
2018-03-29T03:38:41.783Z,90.82
2018-03-29T03:41:09.487Z,90.79
2018-03-29T03:43:37.059Z,90.98
2018-03-29T03:46:04.833Z,91.25
2018-03-29T03:48:32.643Z,91.87
2018-03-29T03:51:01.013Z,92.03
2018-03-29T03:53:28.790Z,91.97
2018-03-29T03:55:56.609Z,91.90
2018-03-29T03:58:24.530Z,92.01
2018-03-29T04:00:52.253Z,92.43
2018-03-29T04:03:20.065Z,92.22
2018-03-29T04:05:47.975Z,91.74
2018-03-29T04:08:15.551Z,91.58
2018-03-29T04:10:43.204Z,91.50
2018-03-29T04:13:10.903Z,91.49
2018-03-29T04:15:38.623Z,91.59
2018-03-29T04:18:06.196Z,91.66
2018-03-29T04:20:33.758Z,91.54
2018-03-29T04:23:01.383Z,91.57
2018-03-29T04:25:29.127Z,91.57
2018-03-29T04:27:56.722Z,91.48
2018-03-29T04:30:24.441Z,91.40
2018-03-29T04:32:52.017Z,91.38
2018-03-29T04:35:19.701Z,91.53
2018-03-29T04:37:47.278Z,91.51
2018-03-29T04:40:14.910Z,91.49
2018-03-29T04:42:42.470Z,90.65
2018-03-29T04:45:10.270Z,88.59
2018-03-29T04:47:37.854Z,85.41
2018-03-29T04:50:05.414Z,82.26
2018-03-29T04:52:33.225Z,80.11
2018-03-29T04:55:00.786Z,77.93
2018-03-29T04:57:28.415Z,77.51
2018-03-29T04:59:55.969Z,74.66
2018-03-29T05:02:23.581Z,74.11
2018-03-29T05:04:51.151Z,71.46
2018-03-29T05:07:18.721Z,68.17
2018-03-29T05:09:46.306Z,62.89
2018-03-29T05:12:14.066Z,61.13
2018-03-29T05:14:41.883Z,57.70
2018-03-29T05:17:09.674Z,55.22
2018-03-29T05:19:37.522Z,53.56
2018-03-29T05:22:05.340Z,52.36
2018-03-29T05:24:32.947Z,50.12
2018-03-29T05:27:00.776Z,48.49
2018-03-29T05:29:28.341Z,46.89
2018-03-29T05:31:56.174Z,44.84
2018-03-29T05:34:23.762Z,43.38
2018-03-29T05:36:51.549Z,41.85
2018-03-29T05:39:19.118Z,40.82
2018-03-29T05:41:46.691Z,40.33
2018-03-29T05:44:14.403Z,39.92
2018-03-29T05:46:41.971Z,39.35
2018-03-29T05:49:09.755Z,38.82
2018-03-29T05:51:37.319Z,37.91
2018-03-29T05:54:04.892Z,37.25
2018-03-29T05:56:32.692Z,36.13
2018-03-29T05:59:00.258Z,35.13
2018-03-29T06:01:27.843Z,34.91
2018-03-29T06:03:55.406Z,34.53
2018-03-29T06:06:23.034Z,35.33
2018-03-29T06:08:50.781Z,34.67
2018-03-29T06:11:18.347Z,34.29
2018-03-29T06:13:45.967Z,33.15
2018-03-29T06:16:17.748Z,32.69
2018-03-29T06:18:45.571Z,32.20
2018-03-29T06:21:13.134Z,32.01
2018-03-29T06:23:40.702Z,30.63
2018-03-29T06:26:08.268Z,30.65
2018-03-29T06:28:35.898Z,29.61
2018-03-29T06:31:03.466Z,30.29
2018-03-29T06:33:31.038Z,30.40
2018-03-29T06:35:58.614Z,30.68
2018-03-29T06:38:26.183Z,29.32
2018-03-29T06:40:53.891Z,28.21
2018-03-29T06:43:21.458Z,27.82
2018-03-29T06:45:49.074Z,28.57
2018-03-29T06:48:16.641Z,28.22
2018-03-29T06:50:44.214Z,28.70
2018-03-29T06:53:12.017Z,29.21
2018-03-29T06:55:39.588Z,28.61
2018-03-29T06:58:07.357Z,28.85
2018-03-29T07:00:34.932Z,29.01
2018-03-29T07:03:02.782Z,28.71
2018-03-29T07:05:30.507Z,28.38
2018-03-29T07:07:58.329Z,27.99
2018-03-29T07:10:25.902Z,27.27
2018-03-29T07:12:53.479Z,28.14
2018-03-29T07:15:21.057Z,28.16
2018-03-29T07:17:48.622Z,28.27
2018-03-29T07:20:16.246Z,28.92
2018-03-29T07:22:44.035Z,28.92
2018-03-29T07:25:11.610Z,30.16
2018-03-29T07:27:39.186Z,30.00
2018-03-29T07:30:06.757Z,30.35
2018-03-29T07:32:34.506Z,30.07
2018-03-29T07:35:02.088Z,29.37
2018-03-29T07:37:29.941Z,27.98
2018-03-29T07:39:57.502Z,27.67
2018-03-29T07:42:25.071Z,29.35
2018-03-29T07:44:52.633Z,28.81
2018-03-29T07:47:20.411Z,28.95
2018-03-29T07:49:47.985Z,27.50
2018-03-29T07:52:15.582Z,26.77
2018-03-29T07:54:43.365Z,27.10
2018-03-29T07:57:10.930Z,27.97
2018-03-29T07:59:38.582Z,28.99
2018-03-29T08:02:06.490Z,29.14
2018-03-29T08:04:34.212Z,30.14
2018-03-29T08:07:02.059Z,31.37
2018-03-29T08:09:29.875Z,31.64
2018-03-29T08:11:57.696Z,32.09
2018-03-29T08:14:25.526Z,31.21
2018-03-29T08:16:53.388Z,30.85
2018-03-29T08:19:21.475Z,32.10
2018-03-29T08:21:49.288Z,31.61
2018-03-29T08:24:17.205Z,31.23
2018-03-29T08:26:45.139Z,30.35
2018-03-29T08:29:13.150Z,31.80
2018-03-29T08:31:40.745Z,30.93
2018-03-29T08:34:08.314Z,31.49
2018-03-29T08:36:35.972Z,31.56
2018-03-29T08:39:03.688Z,30.97
2018-03-29T08:41:31.307Z,31.17
2018-03-29T08:43:58.887Z,31.47
2018-03-29T08:46:26.620Z,34.49
2018-03-29T08:48:54.469Z,33.70
2018-03-29T08:51:22.291Z,33.13
2018-03-29T08:53:49.997Z,32.54
2018-03-29T08:56:17.745Z,33.77
2018-03-29T08:58:45.344Z,33.84
2018-03-29T09:01:13.160Z,36.11
2018-03-29T09:03:40.980Z,36.16
2018-03-29T09:06:08.804Z,35.01
2018-03-29T09:08:36.370Z,34.47
2018-03-29T09:11:04.111Z,32.83
2018-03-29T09:13:31.685Z,32.27
2018-03-29T09:15:59.270Z,32.22
2018-03-29T09:18:26.855Z,31.02
2018-03-29T09:20:54.702Z,33.98
2018-03-29T09:23:22.433Z,34.66
2018-03-29T09:25:50.242Z,35.95
2018-03-29T09:28:17.806Z,38.28
2018-03-29T09:30:45.543Z,39.77
2018-03-29T09:33:13.112Z,41.87
2018-03-29T09:35:40.858Z,40.91
2018-03-29T09:38:08.547Z,38.45
2018-03-29T09:40:36.351Z,37.07
2018-03-29T09:43:03.926Z,33.59
2018-03-29T09:45:31.498Z,30.58
2018-03-29T09:47:59.054Z,31.06
2018-03-29T09:50:26.644Z,30.20
2018-03-29T09:52:54.229Z,30.00
2018-03-29T09:55:21.797Z,29.19
2018-03-29T09:57:49.364Z,26.51
2018-03-29T10:00:17.293Z,27.34
2018-03-29T10:02:50.258Z,28.57
2018-03-29T10:05:17.866Z,29.09
2018-03-29T10:07:45.457Z,27.96
2018-03-29T10:10:13.014Z,29.26
2018-03-29T10:12:40.704Z,29.46
2018-03-29T10:15:08.269Z,29.77
2018-03-29T10:17:35.887Z,29.08
2018-03-29T10:20:03.508Z,28.51
2018-03-29T10:22:31.066Z,30.66
2018-03-29T10:24:58.650Z,31.39
2018-03-29T10:27:26.376Z,28.33
2018-03-29T10:29:54.126Z,30.58
2018-03-29T10:32:21.697Z,29.34
2018-03-29T10:34:49.563Z,29.64
2018-03-29T10:37:17.122Z,29.05
2018-03-29T10:39:44.785Z,30.15
2018-03-29T10:42:12.374Z,29.16
2018-03-29T10:44:39.938Z,29.16
2018-03-29T10:47:07.502Z,28.21
2018-03-29T10:49:35.269Z,27.79
2018-03-29T10:52:02.911Z,27.68
2018-03-29T10:54:30.705Z,28.27
2018-03-29T10:56:58.323Z,30.75
2018-03-29T10:59:25.916Z,30.83
2018-03-29T11:01:53.479Z,31.77
2018-03-29T11:04:21.067Z,32.12
2018-03-29T11:06:48.645Z,29.24
2018-03-29T11:09:16.513Z,31.17
2018-03-29T11:11:44.088Z,30.96
2018-03-29T11:14:11.654Z,29.42
2018-03-29T11:16:39.256Z,31.33
2018-03-29T11:19:06.822Z,30.90
2018-03-29T11:21:34.406Z,30.57
2018-03-29T11:24:02.320Z,30.49
2018-03-29T11:26:30.141Z,30.35
2018-03-29T11:28:57.748Z,30.26
2018-03-29T11:31:25.476Z,32.60
2018-03-29T11:33:53.293Z,31.17
2018-03-29T11:36:20.931Z,29.35
2018-03-29T11:38:48.537Z,28.67
2018-03-29T11:41:16.154Z,28.13
2018-03-29T11:43:43.944Z,30.78
2018-03-29T11:46:11.509Z,31.34
2018-03-29T11:48:39.070Z,30.96
2018-03-29T11:51:06.794Z,31.50
2018-03-29T11:53:34.363Z,32.80
2018-03-29T11:56:01.966Z,28.13
2018-03-29T11:58:29.772Z,28.04
2018-03-29T12:00:57.395Z,26.96
2018-03-29T12:03:24.998Z,29.16
2018-03-29T12:05:52.795Z,27.37
2018-03-29T12:08:20.360Z,25.44
2018-03-29T12:10:48.162Z,22.66
2018-03-29T12:13:15.732Z,25.74
2018-03-29T12:15:43.290Z,26.37
2018-03-29T12:18:10.910Z,28.41
2018-03-29T12:20:38.483Z,26.43
2018-03-29T12:23:06.066Z,27.37
2018-03-29T12:25:33.636Z,29.18
2018-03-29T12:28:01.194Z,29.03
2018-03-29T12:30:28.777Z,28.24
2018-03-29T12:32:56.409Z,27.54
2018-03-29T12:35:24.239Z,27.55
2018-03-29T12:37:51.814Z,27.62
2018-03-29T12:40:19.575Z,26.73
2018-03-29T12:42:47.395Z,27.39
2018-03-29T12:45:15.213Z,26.21
2018-03-29T12:47:43.031Z,27.80
2018-03-29T12:50:10.850Z,28.14
2018-03-29T12:52:38.472Z,29.33
2018-03-29T12:58:09.685Z,28.31
2018-03-29T13:00:37.419Z,27.85
2018-03-29T13:03:05.266Z,26.04
2018-03-29T13:05:32.894Z,26.38
2018-03-29T13:08:00.706Z,27.73
2018-03-29T13:10:28.293Z,25.97
2018-03-29T13:12:55.861Z,24.72
2018-03-29T13:15:23.661Z,24.05
2018-03-29T13:17:51.394Z,24.71
2018-03-29T13:20:18.961Z,24.59
2018-03-29T13:22:46.718Z,24.81
2018-03-29T13:25:14.291Z,25.40
2018-03-29T13:27:41.861Z,27.26
2018-03-29T13:30:09.666Z,25.52
2018-03-29T13:32:37.304Z,25.92
2018-03-29T13:35:04.875Z,22.94
2018-03-29T13:37:32.440Z,23.13
2018-03-29T13:40:00.237Z,24.05
2018-03-29T13:42:27.794Z,25.39
2018-03-29T13:44:55.575Z,25.83
2018-03-29T13:47:23.391Z,25.26
2018-03-29T13:49:51.106Z,24.59
2018-03-29T13:52:18.817Z,22.89
2018-03-29T13:54:46.389Z,23.48
2018-03-29T13:57:13.958Z,23.13
2018-03-29T13:59:41.551Z,22.98
2018-03-29T14:02:09.118Z,22.87
2018-03-29T14:04:36.927Z,22.22
2018-03-29T14:07:04.557Z,22.91
2018-03-29T14:09:32.141Z,23.79
2018-03-29T14:11:59.694Z,23.42
2018-03-29T14:14:27.272Z,25.03
2018-03-29T14:16:54.835Z,26.05
2018-03-29T14:19:22.453Z,26.54
2018-03-29T14:21:50.699Z,27.11
2018-03-29T14:24:18.438Z,28.23
2018-03-29T14:26:46.009Z,28.57
2018-03-29T14:29:13.570Z,28.40
2018-03-29T14:31:41.196Z,28.15
2018-03-29T14:34:08.785Z,28.48
2018-03-29T14:36:36.550Z,26.37
2018-03-29T14:39:04.511Z,26.63
2018-03-29T14:41:32.137Z,26.67
2018-03-29T14:44:00.101Z,25.78
2018-03-29T14:46:27.693Z,23.84
2018-03-29T14:48:55.405Z,24.45
2018-03-29T14:51:22.978Z,24.17
2018-03-29T14:53:50.545Z,25.16
2018-03-29T14:56:18.154Z,25.39
2018-03-29T14:58:45.714Z,24.74
2018-03-29T15:01:13.316Z,24.84
2018-03-29T15:03:40.890Z,25.10
2018-03-29T15:06:08.455Z,24.30
2018-03-29T15:08:36.082Z,24.49
2018-03-29T15:11:03.662Z,25.74
2018-03-29T15:13:31.256Z,25.79
2018-03-29T15:15:59.038Z,25.74
2018-03-29T15:18:26.646Z,26.76
2018-03-29T15:20:54.290Z,28.19
2018-03-29T15:23:21.858Z,29.33
2018-03-29T15:25:49.609Z,29.11
2018-03-29T15:28:17.189Z,29.45
2018-03-29T15:30:44.827Z,29.36
2018-03-29T15:33:12.533Z,30.40
2018-03-29T15:35:41.075Z,29.38
2018-03-29T15:38:09.003Z,29.92
2018-03-29T15:40:36.738Z,30.94
2018-03-29T15:43:04.407Z,31.67
2018-03-29T15:45:31.990Z,32.47
2018-03-29T15:47:59.560Z,34.86
2018-03-29T15:50:27.187Z,35.99
2018-03-29T15:52:54.792Z,36.49
2018-03-29T15:55:22.426Z,37.32
2018-03-29T15:57:50.152Z,38.59
2018-03-29T16:00:17.940Z,39.55
2018-03-29T16:02:45.518Z,39.60
2018-03-29T16:05:13.083Z,41.05
2018-03-29T16:07:40.819Z,40.75
2018-03-29T16:10:08.429Z,41.44
2018-03-29T16:12:37.218Z,42.01
2018-03-29T16:15:04.862Z,41.86
2018-03-29T16:17:32.694Z,42.53
2018-03-29T16:20:00.270Z,43.24
2018-03-29T16:22:27.838Z,43.62
2018-03-29T16:24:55.460Z,46.17
2018-03-29T16:27:23.265Z,45.22
2018-03-29T16:29:50.834Z,44.66
2018-03-29T16:32:18.420Z,47.58
2018-03-29T16:34:45.986Z,45.80
2018-03-29T16:37:13.580Z,46.24
2018-03-29T16:39:41.149Z,47.35
2018-03-29T16:42:08.770Z,46.67
2018-03-29T16:44:36.490Z,46.54
2018-03-29T16:47:04.309Z,49.11
2018-03-29T16:49:31.874Z,48.70
2018-03-29T16:51:59.645Z,50.06
2018-03-29T16:54:27.233Z,50.95
2018-03-29T16:56:54.814Z,50.62
2018-03-29T16:59:22.753Z,51.50
2018-03-29T17:01:50.310Z,51.16
2018-03-29T17:04:18.036Z,50.04
2018-03-29T17:06:45.618Z,49.13
2018-03-29T17:09:13.192Z,50.09
2018-03-29T17:11:40.801Z,52.13
2018-03-29T17:14:08.379Z,51.60
2018-03-29T17:16:36.022Z,52.15
2018-03-29T17:19:03.734Z,51.83
2018-03-29T17:21:31.461Z,50.99
2018-03-29T17:23:59.069Z,50.67
2018-03-29T17:26:26.801Z,50.45
2018-03-29T17:28:54.382Z,50.29
2018-03-29T17:31:21.949Z,50.09
2018-03-29T17:33:49.642Z,50.03
2018-03-29T17:36:17.206Z,50.46
2018-03-29T17:38:44.782Z,49.44
2018-03-29T17:41:12.416Z,50.63
2018-03-29T17:43:39.954Z,50.91
2018-03-29T17:46:07.630Z,51.23
2018-03-29T17:48:35.348Z,49.73
2018-03-29T17:51:03.136Z,49.52
2018-03-29T17:53:30.876Z,50.09
2018-03-29T17:55:58.442Z,50.98
2018-03-29T17:58:26.231Z,50.16
2018-03-29T18:00:53.930Z,51.29
2018-03-29T18:03:21.767Z,50.56
2018-03-29T18:05:49.360Z,50.36
2018-03-29T18:08:17.202Z,50.56
2018-03-29T18:10:44.812Z,51.58
2018-03-29T18:13:12.386Z,50.98
2018-03-29T18:15:40.130Z,50.83
2018-03-29T18:18:07.699Z,51.99
2018-03-29T18:20:35.290Z,52.66
2018-03-29T18:23:03.112Z,53.34
2018-03-29T18:25:30.820Z,53.66
2018-03-29T18:27:58.395Z,54.81
2018-03-29T18:30:25.972Z,54.08
2018-03-29T18:32:53.716Z,54.06
2018-03-29T18:35:21.501Z,54.86
2018-03-29T18:37:49.096Z,54.92
2018-03-29T18:40:16.665Z,54.84
2018-03-29T18:42:44.286Z,56.45
2018-03-29T18:45:11.887Z,57.53
2018-03-29T18:47:39.490Z,58.79
2018-03-29T18:50:07.308Z,58.61
2018-03-29T18:52:35.027Z,57.89
2018-03-29T18:55:02.657Z,57.11
2018-03-29T18:57:30.222Z,56.35
2018-03-29T18:59:57.822Z,56.46
2018-03-29T19:02:25.397Z,56.57
2018-03-29T19:04:52.986Z,56.65
2018-03-29T19:07:20.826Z,56.17
2018-03-29T19:09:48.408Z,56.15
2018-03-29T19:12:15.984Z,56.74
2018-03-29T19:14:43.798Z,57.52
2018-03-29T19:17:11.378Z,57.13
2018-03-29T19:19:39.225Z,57.21
2018-03-29T19:22:06.820Z,58.23
2018-03-29T19:24:34.443Z,59.13
2018-03-29T19:27:02.069Z,59.21
2018-03-29T19:29:29.893Z,57.88
2018-03-29T19:31:57.525Z,58.41
2018-03-29T19:34:25.302Z,60.24
2018-03-29T19:36:52.880Z,60.58
2018-03-29T19:39:20.467Z,61.08
2018-03-29T19:41:48.287Z,61.97
2018-03-29T19:44:16.108Z,61.43
2018-03-29T19:46:43.673Z,61.54
2018-03-29T19:49:11.542Z,62.07
2018-03-29T19:51:39.104Z,61.80
2018-03-29T19:54:06.671Z,60.34
2018-03-29T19:56:34.287Z,60.89
2018-03-29T19:59:02.014Z,60.69
2018-03-29T20:01:29.833Z,60.93
2018-03-29T20:03:57.434Z,60.62
2018-03-29T20:06:24.998Z,61.62
2018-03-29T20:08:52.667Z,60.61
2018-03-29T20:11:20.282Z,60.74
2018-03-29T20:13:48.124Z,59.33
2018-03-29T20:16:15.690Z,59.48
2018-03-29T20:18:43.251Z,60.53
2018-03-29T20:21:10.823Z,60.33
2018-03-29T20:23:38.378Z,59.87
2018-03-29T20:26:06.022Z,60.64
2018-03-29T20:28:33.666Z,60.35
2018-03-29T20:31:01.226Z,58.52
2018-03-29T20:33:28.815Z,58.92
2018-03-29T20:35:56.474Z,60.10
2018-03-29T20:38:24.171Z,60.04
2018-03-29T20:40:51.730Z,60.24
2018-03-29T20:43:19.536Z,60.19
2018-03-29T20:45:47.110Z,59.00
2018-03-29T20:48:14.662Z,58.70
2018-03-29T20:50:42.234Z,58.24
2018-03-29T20:53:09.790Z,59.54
2018-03-29T20:55:37.520Z,57.66
2018-03-29T20:58:05.094Z,57.93
2018-03-29T21:00:32.860Z,58.32
2018-03-29T21:03:00.461Z,58.65
2018-03-29T21:05:28.024Z,59.75
2018-03-29T21:07:55.837Z,59.52
2018-03-29T21:10:23.412Z,58.87
2018-03-29T21:12:51.134Z,59.04
2018-03-29T21:15:18.707Z,59.21
2018-03-29T21:17:46.265Z,61.15
2018-03-29T21:20:13.986Z,60.11
2018-03-29T21:22:41.550Z,60.62
2018-03-29T21:25:09.177Z,58.56
2018-03-29T21:27:36.957Z,60.03
2018-03-29T21:30:04.587Z,60.50
2018-03-29T21:32:32.174Z,60.93
2018-03-29T21:34:59.914Z,60.04
2018-03-29T21:37:27.732Z,59.94
2018-03-29T21:39:55.284Z,60.70
2018-03-29T21:42:22.926Z,60.83
2018-03-29T21:44:50.485Z,62.22
2018-03-29T21:47:18.301Z,61.64
2018-03-29T21:49:45.912Z,61.78
2018-03-29T21:52:13.478Z,61.90
2018-03-29T21:54:41.086Z,60.76
2018-03-29T21:57:08.833Z,60.54
2018-03-29T21:59:36.386Z,60.38
2018-03-29T22:02:03.976Z,59.20
2018-03-29T22:04:31.544Z,60.05
2018-03-29T22:06:59.185Z,60.26
2018-03-29T22:09:26.782Z,59.97
2018-03-29T22:11:54.582Z,60.28
2018-03-29T22:14:22.398Z,60.66
2018-03-29T22:16:49.961Z,59.71
2018-03-29T22:19:17.574Z,60.45
2018-03-29T22:21:45.355Z,60.54
2018-03-29T22:24:13.838Z,59.66
2018-03-29T22:26:41.412Z,59.48
2018-03-29T22:29:09.210Z,59.64
2018-03-29T22:31:37.029Z,59.52
2018-03-29T22:34:04.743Z,58.95
2018-03-29T22:36:32.374Z,58.87
2018-03-29T22:39:00.182Z,58.71
2018-03-29T22:41:27.900Z,58.77
2018-03-29T22:43:55.463Z,58.60
2018-03-29T22:46:23.240Z,58.33
2018-03-29T22:48:50.805Z,58.53
2018-03-29T22:51:18.366Z,58.64
2018-03-29T22:53:46.018Z,58.60
2018-03-29T22:56:13.579Z,58.28
2018-03-29T22:58:41.137Z,57.62
2018-03-29T23:01:08.734Z,57.58
2018-03-29T23:03:36.364Z,56.99
2018-03-29T23:06:04.179Z,57.08
2018-03-29T23:08:31.889Z,57.30
2018-03-29T23:10:59.716Z,57.76
2018-03-29T23:13:27.274Z,57.83
2018-03-29T23:15:55.052Z,57.93
2018-03-29T23:18:22.870Z,58.27
2018-03-29T23:20:50.589Z,58.11
2018-03-29T23:23:18.168Z,58.35
2018-03-29T23:25:45.898Z,58.76
2018-03-29T23:28:13.586Z,58.78
2018-03-29T23:30:41.330Z,58.93
2018-03-29T23:33:08.885Z,59.17
2018-03-29T23:35:36.697Z,58.91
2018-03-29T23:38:04.319Z,58.81
2018-03-29T23:40:32.051Z,58.69
2018-03-29T23:42:59.811Z,58.68
2018-03-29T23:45:27.726Z,59.13
2018-03-29T23:47:55.330Z,58.87
2018-03-29T23:50:23.107Z,58.71
2018-03-29T23:52:50.678Z,58.74
2018-03-29T23:55:18.242Z,59.26
2018-03-29T23:57:45.926Z,58.98
